createdAt,value
2022-10-16T00:01:21.314Z,15.36
2022-10-16T00:03:48.526Z,15.38
2022-10-16T00:06:16.775Z,15.38
2022-10-16T00:08:45.841Z,15.19
2022-10-16T00:11:16.410Z,15.16
2022-10-16T00:13:45.111Z,15.11
2022-10-16T00:16:13.154Z,15.00
2022-10-16T00:18:40.067Z,14.87
2022-10-16T00:21:09.679Z,14.85
2022-10-16T00:23:36.481Z,14.79
2022-10-16T00:26:09.758Z,14.71
2022-10-16T00:28:36.690Z,14.85
2022-10-16T00:31:05.074Z,14.81
2022-10-16T00:33:31.547Z,14.88
2022-10-16T00:36:03.129Z,14.71
2022-10-16T00:38:30.022Z,14.61
2022-10-16T00:40:57.004Z,14.57
2022-10-16T00:43:35.330Z,14.55
2022-10-16T00:46:03.726Z,14.52
2022-10-16T00:48:30.610Z,14.56
2022-10-16T00:50:57.992Z,14.48
2022-10-16T00:53:26.087Z,14.45
2022-10-16T00:55:53.196Z,14.49
2022-10-16T00:58:19.666Z,14.59
2022-10-16T01:00:46.114Z,14.63
2022-10-16T01:03:30.618Z,14.67
2022-10-16T01:06:19.467Z,15.06
2022-10-16T01:08:52.897Z,15.22
2022-10-16T01:11:49.546Z,15.25
2022-10-16T01:14:23.258Z,15.43
2022-10-16T01:16:56.815Z,15.47
2022-10-16T01:19:47.267Z,15.58
2022-10-16T01:22:14.523Z,15.56
2022-10-16T01:24:45.640Z,15.54
2022-10-16T01:27:36.908Z,15.57
2022-10-16T01:30:10.834Z,15.58
2022-10-16T01:32:41.754Z,15.60
2022-10-16T01:35:19.634Z,15.60
2022-10-16T01:37:57.702Z,15.80
2022-10-16T01:40:26.711Z,15.89
2022-10-16T01:43:03.218Z,16.00
2022-10-16T01:45:31.656Z,15.93
2022-10-16T01:47:58.505Z,16.01
2022-10-16T01:50:25.584Z,15.90
2022-10-16T01:52:53.575Z,15.88
2022-10-16T01:55:24.270Z,16.06
2022-10-16T01:57:51.455Z,16.05
2022-10-16T02:00:20.242Z,16.01
2022-10-16T02:02:50.209Z,15.95
2022-10-16T02:05:37.897Z,15.95
2022-10-16T02:08:05.719Z,15.89
2022-10-16T02:10:33.137Z,15.98
2022-10-16T02:13:07.597Z,15.90
2022-10-16T02:15:34.136Z,15.80
2022-10-16T02:18:01.019Z,15.95
2022-10-16T02:20:29.437Z,15.93
2022-10-16T02:22:57.077Z,15.94
2022-10-16T02:25:26.140Z,15.96
2022-10-16T02:27:54.976Z,15.98
2022-10-16T02:30:28.301Z,15.96
2022-10-16T02:32:55.356Z,16.10
2022-10-16T02:35:23.778Z,16.04
2022-10-16T02:37:51.385Z,16.02
2022-10-16T02:40:20.381Z,16.15
2022-10-16T02:42:53.399Z,16.10
2022-10-16T02:45:20.142Z,16.24
2022-10-16T02:47:46.602Z,16.18
2022-10-16T02:50:13.114Z,16.14
2022-10-16T02:52:39.728Z,16.11
2022-10-16T02:55:06.492Z,16.19
2022-10-16T02:57:33.226Z,16.25
2022-10-16T02:59:59.976Z,16.25
2022-10-16T03:02:26.725Z,16.24
2022-10-16T03:04:53.132Z,16.30
2022-10-16T03:07:19.497Z,16.35
2022-10-16T03:09:45.988Z,16.33
2022-10-16T03:12:13.086Z,16.28
2022-10-16T03:14:40.821Z,16.38
2022-10-16T03:17:07.543Z,16.31
2022-10-16T03:19:33.909Z,16.21
2022-10-16T03:22:00.296Z,16.30
2022-10-16T03:24:26.675Z,16.22
2022-10-16T03:26:53.050Z,16.08
2022-10-16T03:29:19.587Z,16.01
2022-10-16T03:31:45.973Z,15.95
2022-10-16T03:34:12.402Z,15.93
2022-10-16T03:36:39.794Z,15.85
2022-10-16T03:39:06.169Z,15.77
2022-10-16T03:41:32.595Z,15.77
2022-10-16T03:43:58.982Z,15.82
2022-10-16T03:46:25.459Z,15.75
2022-10-16T03:48:52.212Z,15.90
2022-10-16T03:51:18.709Z,15.81
2022-10-16T03:53:45.078Z,15.90
2022-10-16T03:56:11.473Z,15.99
2022-10-16T03:58:37.895Z,15.80
2022-10-16T04:01:04.470Z,15.69
2022-10-16T04:03:31.144Z,15.55
2022-10-16T04:05:57.636Z,15.48
2022-10-16T04:08:24.141Z,15.32
2022-10-16T04:10:50.592Z,15.33
2022-10-16T04:13:17.611Z,15.24
2022-10-16T04:15:46.601Z,15.26
2022-10-16T04:18:13.217Z,15.21
2022-10-16T04:20:39.811Z,15.16
2022-10-16T04:23:06.279Z,15.14
2022-10-16T04:25:32.711Z,15.22
2022-10-16T04:27:59.112Z,15.16
2022-10-16T04:30:25.986Z,15.20
2022-10-16T04:32:53.198Z,15.19
2022-10-16T04:35:21.130Z,15.24
2022-10-16T04:37:48.339Z,15.28
2022-10-16T04:40:14.977Z,15.26
2022-10-16T04:42:41.712Z,15.41
2022-10-16T04:45:12.041Z,15.37
2022-10-16T04:47:41.363Z,15.33
2022-10-16T04:50:08.213Z,15.40
2022-10-16T04:55:03.637Z,15.56
2022-10-16T04:57:30.647Z,15.58
2022-10-16T04:59:57.026Z,15.70
2022-10-16T05:02:23.565Z,15.78
2022-10-16T05:04:49.974Z,15.63
2022-10-16T05:07:16.539Z,15.53
2022-10-16T05:09:42.918Z,15.50
2022-10-16T05:12:09.502Z,15.63
2022-10-16T05:14:35.979Z,15.67
2022-10-16T05:17:02.594Z,15.58
2022-10-16T05:19:29.355Z,15.62
2022-10-16T05:21:56.078Z,15.56
2022-10-16T05:24:22.788Z,15.51
2022-10-16T05:26:49.282Z,15.46
2022-10-16T05:29:15.669Z,15.41
2022-10-16T05:31:44.205Z,15.40
2022-10-16T05:34:10.774Z,15.36
2022-10-16T05:36:37.162Z,15.29
2022-10-16T05:39:03.931Z,15.28
2022-10-16T05:41:30.380Z,15.25
2022-10-16T05:43:56.798Z,15.26
2022-10-16T05:46:23.217Z,15.32
2022-10-16T05:48:49.610Z,15.58
2022-10-16T05:51:16.297Z,15.71
2022-10-16T05:56:12.132Z,15.62
2022-10-16T05:58:41.409Z,15.63
2022-10-16T06:01:14.508Z,15.83
2022-10-16T06:03:41.231Z,15.76
2022-10-16T06:06:18.664Z,15.78
2022-10-16T06:08:46.544Z,15.83
2022-10-16T06:11:18.446Z,15.90
2022-10-16T06:13:46.745Z,15.91
2022-10-16T06:16:13.820Z,15.95
2022-10-16T06:18:40.307Z,16.00
2022-10-16T06:21:11.403Z,15.97
2022-10-16T06:23:38.098Z,16.09
2022-10-16T06:26:13.182Z,16.42
2022-10-16T06:28:39.916Z,16.94
2022-10-16T06:31:08.510Z,17.06
2022-10-16T06:33:36.149Z,16.98
2022-10-16T06:36:07.206Z,17.24
2022-10-16T06:38:33.611Z,17.20
2022-10-16T06:41:00.057Z,17.18
2022-10-16T06:43:26.724Z,17.33
2022-10-16T06:45:57.436Z,17.32
2022-10-16T06:48:24.265Z,17.37
2022-10-16T06:53:39.483Z,17.39
2022-10-16T06:56:28.010Z,17.11
2022-10-16T06:58:54.950Z,17.38
2022-10-16T07:01:23.809Z,17.33
2022-10-16T07:03:50.335Z,17.40
2022-10-16T07:06:19.954Z,17.33
2022-10-16T07:08:47.362Z,17.44
2022-10-16T07:11:16.402Z,17.53
2022-10-16T07:13:48.156Z,17.16
2022-10-16T07:16:22.387Z,17.35
2022-10-16T07:18:50.135Z,17.30
2022-10-16T07:21:20.416Z,17.32
2022-10-16T07:23:53.924Z,17.43
2022-10-16T07:26:20.449Z,17.55
2022-10-16T07:28:47.428Z,17.82
2022-10-16T07:31:15.452Z,17.86
2022-10-16T07:33:44.088Z,17.77
2022-10-16T07:36:15.820Z,17.79
2022-10-16T07:38:43.323Z,17.94
2022-10-16T07:41:13.029Z,17.95
2022-10-16T07:43:39.553Z,17.90
2022-10-16T07:46:06.682Z,17.95
2022-10-16T07:48:35.355Z,18.08
2022-10-16T07:51:03.670Z,17.98
2022-10-16T07:53:30.183Z,18.06
2022-10-16T07:56:00.567Z,18.03
2022-10-16T07:58:28.882Z,18.18
2022-10-16T08:00:56.379Z,18.21
2022-10-16T08:03:23.103Z,18.39
2022-10-16T08:05:49.570Z,18.38
2022-10-16T08:08:17.563Z,18.49
2022-10-16T08:10:44.432Z,18.29
2022-10-16T08:13:11.076Z,18.46
2022-10-16T08:15:37.467Z,18.56
2022-10-16T08:18:05.404Z,18.66
2022-10-16T08:20:32.846Z,18.86
2022-10-16T08:23:00.352Z,18.80
2022-10-16T08:25:27.434Z,18.82
2022-10-16T08:27:53.799Z,19.07
2022-10-16T08:30:21.581Z,19.15
2022-10-16T08:32:48.066Z,19.35
2022-10-16T08:35:15.823Z,19.73
2022-10-16T08:37:42.789Z,19.97
2022-10-16T08:40:21.450Z,20.31
2022-10-16T08:43:11.914Z,20.36
2022-10-16T08:45:41.287Z,20.42
2022-10-16T08:48:12.036Z,20.76
2022-10-16T08:50:40.364Z,21.75
2022-10-16T08:53:07.390Z,22.68
2022-10-16T08:55:43.946Z,23.25
2022-10-16T08:58:15.720Z,23.88
2022-10-16T09:00:43.710Z,25.36
2022-10-16T09:03:40.892Z,26.78
2022-10-16T09:06:22.203Z,26.37
2022-10-16T09:09:13.157Z,27.53
2022-10-16T09:11:48.150Z,25.99
2022-10-16T09:14:37.340Z,27.23
2022-10-16T09:17:43.352Z,27.79
2022-10-16T09:20:27.580Z,29.96
2022-10-16T09:23:11.578Z,30.31
2022-10-16T09:25:40.062Z,31.37
2022-10-16T09:28:06.803Z,32.23
2022-10-16T09:30:33.273Z,31.44
2022-10-16T09:32:59.885Z,31.22
2022-10-16T09:35:36.730Z,29.64
2022-10-16T09:38:03.297Z,28.70
2022-10-16T09:40:32.599Z,28.22
2022-10-16T09:43:04.882Z,27.71
2022-10-16T09:45:31.330Z,26.73
2022-10-16T09:47:58.082Z,26.05
2022-10-16T09:50:27.379Z,26.19
2022-10-16T09:53:07.139Z,24.81
2022-10-16T09:55:33.712Z,25.43
2022-10-16T09:58:00.112Z,25.57
2022-10-16T10:00:27.203Z,27.25
2022-10-16T10:05:31.224Z,27.76
2022-10-16T10:08:03.925Z,27.40
2022-10-16T10:10:32.296Z,26.76
2022-10-16T10:12:59.172Z,26.64
2022-10-16T10:15:27.815Z,26.90
2022-10-16T10:17:55.960Z,26.99
2022-10-16T10:20:25.540Z,26.63
2022-10-16T10:22:52.374Z,26.85
2022-10-16T10:25:36.968Z,26.19
2022-10-16T10:28:28.277Z,26.46
2022-10-16T10:31:16.840Z,26.69
2022-10-16T10:33:51.199Z,27.27
2022-10-16T10:36:35.375Z,25.99
2022-10-16T10:39:15.638Z,26.48
2022-10-16T10:42:13.154Z,25.89
2022-10-16T10:44:57.236Z,25.18
2022-10-16T10:47:31.924Z,24.94
2022-10-16T10:50:09.701Z,24.32
2022-10-16T10:52:53.490Z,24.29
2022-10-16T10:55:26.719Z,23.95
2022-10-16T10:58:00.633Z,24.03
2022-10-16T11:00:55.019Z,23.96
2022-10-16T11:03:40.287Z,23.91
2022-10-16T11:06:13.485Z,24.18
2022-10-16T11:08:43.976Z,25.76
2022-10-16T11:11:25.441Z,27.04
2022-10-16T11:13:59.684Z,27.60
2022-10-16T11:16:33.737Z,26.26
2022-10-16T11:19:04.714Z,26.19
2022-10-16T11:21:37.898Z,26.43
2022-10-16T11:24:32.297Z,26.94
2022-10-16T11:27:05.174Z,26.93
2022-10-16T11:29:32.656Z,26.56
2022-10-16T11:32:19.436Z,26.16
2022-10-16T11:34:50.544Z,26.01
2022-10-16T11:37:25.466Z,25.76
2022-10-16T11:39:53.478Z,25.07
2022-10-16T11:42:39.895Z,24.70
2022-10-16T11:45:27.821Z,24.63
2022-10-16T11:48:33.603Z,25.07
2022-10-16T11:51:20.531Z,25.41
2022-10-16T11:53:47.644Z,26.38
2022-10-16T11:56:17.142Z,26.32
2022-10-16T11:58:57.949Z,26.70
2022-10-16T12:01:44.509Z,27.49
2022-10-16T12:04:20.135Z,28.90
2022-10-16T12:07:02.571Z,29.98
2022-10-16T12:09:31.876Z,29.22
2022-10-16T12:11:59.019Z,28.19
2022-10-16T12:14:28.531Z,27.56
2022-10-16T12:16:57.759Z,27.14
2022-10-16T12:19:26.076Z,26.93
2022-10-16T12:21:53.819Z,26.61
2022-10-16T12:24:42.453Z,27.35
2022-10-16T12:27:26.894Z,27.06
2022-10-16T12:29:57.951Z,26.15
2022-10-16T12:32:51.532Z,26.26
2022-10-16T12:35:29.782Z,26.19
2022-10-16T12:38:06.780Z,25.89
2022-10-16T12:40:34.985Z,25.75
2022-10-16T12:43:13.045Z,26.05
2022-10-16T12:45:39.486Z,27.07
2022-10-16T12:48:20.654Z,27.34
2022-10-16T12:50:47.068Z,26.76
2022-10-16T12:53:20.535Z,26.61
2022-10-16T12:55:58.958Z,26.24
2022-10-16T12:58:25.392Z,25.75
2022-10-16T13:00:59.149Z,25.33
2022-10-16T13:03:25.603Z,24.87
2022-10-16T13:06:04.372Z,24.62
2022-10-16T13:09:01.955Z,24.47
2022-10-16T13:12:05.759Z,24.32
2022-10-16T13:14:46.070Z,24.34
2022-10-16T13:17:35.552Z,24.14
2022-10-16T13:20:35.370Z,24.07
2022-10-16T13:23:26.478Z,23.99
2022-10-16T13:26:11.242Z,24.06
2022-10-16T13:28:40.486Z,24.29
2022-10-16T13:31:15.220Z,24.41
2022-10-16T13:33:45.965Z,24.10
2022-10-16T13:36:24.288Z,23.93
2022-10-16T13:39:02.918Z,23.77
2022-10-16T13:41:29.543Z,23.81
2022-10-16T13:43:57.567Z,23.66
2022-10-16T13:46:25.962Z,23.64
2022-10-16T13:49:04.437Z,23.77
2022-10-16T13:51:32.062Z,23.95
2022-10-16T13:53:59.280Z,24.38
2022-10-16T13:56:28.434Z,24.73
2022-10-16T13:59:27.506Z,24.85
2022-10-16T14:01:56.339Z,24.81
2022-10-16T14:04:22.979Z,24.88
2022-10-16T14:06:51.679Z,24.68
2022-10-16T14:09:28.084Z,24.67
2022-10-16T14:12:03.495Z,24.43
2022-10-16T14:14:36.434Z,24.32
2022-10-16T14:17:03.557Z,24.29
2022-10-16T14:19:30.731Z,24.06
2022-10-16T14:21:57.674Z,24.22
2022-10-16T14:24:34.310Z,24.17
2022-10-16T14:27:01.579Z,24.09
2022-10-16T14:29:29.799Z,24.05
2022-10-16T14:32:01.396Z,23.88
2022-10-16T14:34:40.956Z,23.78
2022-10-16T14:37:22.632Z,23.87
2022-10-16T14:39:52.412Z,23.78
2022-10-16T14:42:20.391Z,23.71
2022-10-16T14:44:48.188Z,23.67
2022-10-16T14:47:17.215Z,23.54
2022-10-16T14:49:44.040Z,23.49
2022-10-16T14:52:12.438Z,23.47
2022-10-16T14:54:39.111Z,23.54
2022-10-16T14:57:05.998Z,23.51
2022-10-16T14:59:44.983Z,23.48
2022-10-16T15:02:31.276Z,23.38
2022-10-16T15:04:58.497Z,23.29
2022-10-16T15:07:25.940Z,23.26
2022-10-16T15:09:53.218Z,23.27
2022-10-16T15:12:19.842Z,23.32
2022-10-16T15:14:46.223Z,23.33
2022-10-16T15:17:12.718Z,23.27
2022-10-16T15:19:39.287Z,23.23
2022-10-16T15:22:05.727Z,23.23
2022-10-16T15:24:32.166Z,23.08
2022-10-16T15:26:58.804Z,22.99
2022-10-16T15:29:25.192Z,22.87
2022-10-16T15:31:51.722Z,22.69
2022-10-16T15:34:20.074Z,22.50
2022-10-16T15:36:46.599Z,22.45
2022-10-16T15:39:14.831Z,22.37
2022-10-16T15:41:42.322Z,22.21
2022-10-16T15:44:08.908Z,22.02
2022-10-16T15:46:35.791Z,21.92
2022-10-16T15:49:02.272Z,21.63
2022-10-16T15:51:30.348Z,21.42
2022-10-16T15:53:57.898Z,21.35
2022-10-16T15:56:26.387Z,21.25
2022-10-16T15:58:53.431Z,21.04
2022-10-16T16:01:20.015Z,20.88
2022-10-16T16:03:46.693Z,20.74
2022-10-16T16:06:14.580Z,20.69
2022-10-16T16:08:41.098Z,20.52
2022-10-16T16:11:13.139Z,20.38
2022-10-16T16:13:40.005Z,20.24
2022-10-16T16:16:15.121Z,20.10
2022-10-16T16:18:42.348Z,20.01
2022-10-16T16:21:15.184Z,19.89
2022-10-16T16:23:41.620Z,19.80
2022-10-16T16:26:15.133Z,19.64
2022-10-16T16:28:44.337Z,19.61
2022-10-16T16:31:12.419Z,19.52
2022-10-16T16:33:39.311Z,19.45
2022-10-16T16:36:11.559Z,19.38
2022-10-16T16:38:38.398Z,19.33
2022-10-16T16:41:21.662Z,19.26
2022-10-16T16:43:48.469Z,19.26
2022-10-16T16:46:15.759Z,19.13
2022-10-16T16:48:42.685Z,19.12
2022-10-16T16:51:17.048Z,19.11
2022-10-16T16:53:44.750Z,18.94
2022-10-16T16:56:11.539Z,18.79
2022-10-16T16:58:37.989Z,18.70
2022-10-16T17:01:21.364Z,18.56
2022-10-16T17:03:52.878Z,18.44
2022-10-16T17:06:25.918Z,18.36
2022-10-16T17:08:52.358Z,18.41
2022-10-16T17:11:21.987Z,18.25
2022-10-16T17:13:51.177Z,18.17
2022-10-16T17:16:23.354Z,18.04
2022-10-16T17:18:49.800Z,17.97
2022-10-16T17:21:16.637Z,17.90
2022-10-16T17:23:43.043Z,17.84
2022-10-16T17:26:14.807Z,17.77
2022-10-16T17:28:41.843Z,17.64
2022-10-16T17:31:14.481Z,17.59
2022-10-16T17:33:41.328Z,17.48
2022-10-16T17:36:08.261Z,17.41
2022-10-16T17:38:35.793Z,17.44
2022-10-16T17:41:13.968Z,17.39
2022-10-16T17:43:40.697Z,17.29
2022-10-16T17:46:08.475Z,17.26
2022-10-16T17:48:39.758Z,17.21
2022-10-16T17:51:11.130Z,17.16
2022-10-16T17:53:38.499Z,17.14
2022-10-16T17:56:06.834Z,17.09
2022-10-16T17:58:33.451Z,17.01
2022-10-16T18:01:00.651Z,17.04
2022-10-16T18:03:27.352Z,17.08
2022-10-16T18:05:55.642Z,16.96
2022-10-16T18:08:25.053Z,16.91
2022-10-16T18:10:54.404Z,16.90
2022-10-16T18:13:20.844Z,16.86
2022-10-16T18:15:47.270Z,16.89
2022-10-16T18:18:14.371Z,16.92
2022-10-16T18:20:40.795Z,16.96
2022-10-16T18:23:07.245Z,16.99
2022-10-16T18:25:33.635Z,17.05
2022-10-16T18:28:01.100Z,17.08
2022-10-16T18:30:27.663Z,17.09
2022-10-16T18:32:54.106Z,17.11
2022-10-16T18:35:20.531Z,17.20
2022-10-16T18:37:46.938Z,17.24
2022-10-16T18:40:13.338Z,17.28
2022-10-16T18:42:40.413Z,17.33
2022-10-16T18:45:07.441Z,17.31
2022-10-16T18:47:33.924Z,17.25
2022-10-16T18:50:00.821Z,17.23
2022-10-16T18:52:29.652Z,17.17
2022-10-16T18:54:57.929Z,17.14
2022-10-16T18:57:24.812Z,17.14
2022-10-16T18:59:55.134Z,17.04
2022-10-16T19:02:22.852Z,16.95
2022-10-16T19:04:52.719Z,16.92
2022-10-16T19:07:19.223Z,16.91
2022-10-16T19:09:45.616Z,16.90
2022-10-16T19:12:14.800Z,16.89
2022-10-16T19:14:42.860Z,16.87
2022-10-16T19:17:09.424Z,16.92
2022-10-16T19:19:38.461Z,16.93
2022-10-16T19:22:23.642Z,16.92
2022-10-16T19:24:51.975Z,17.00
2022-10-16T19:27:18.466Z,16.99
2022-10-16T19:29:45.208Z,17.03
2022-10-16T19:32:14.053Z,17.07
2022-10-16T19:34:41.251Z,17.06
2022-10-16T19:37:10.447Z,17.03
2022-10-16T19:39:36.907Z,17.03
2022-10-16T19:42:03.457Z,16.97
2022-10-16T19:44:30.999Z,16.97
2022-10-16T19:46:57.654Z,16.95
2022-10-16T19:49:28.248Z,16.93
2022-10-16T19:51:57.229Z,16.94
2022-10-16T19:54:23.736Z,16.98
2022-10-16T19:56:50.249Z,16.98
2022-10-16T19:59:19.220Z,17.03
2022-10-16T20:01:46.726Z,17.00
2022-10-16T20:04:14.307Z,17.00
2022-10-16T20:06:40.792Z,16.97
2022-10-16T20:09:07.306Z,17.01
2022-10-16T20:11:35.554Z,17.09
2022-10-16T20:14:02.275Z,17.03
2022-10-16T20:16:30.862Z,17.07
2022-10-16T20:18:59.080Z,17.10
2022-10-16T20:21:27.709Z,16.97
2022-10-16T20:23:54.326Z,16.82
2022-10-16T20:26:22.425Z,16.92
2022-10-16T20:28:49.029Z,16.81
2022-10-16T20:31:22.833Z,16.82
2022-10-16T20:33:50.726Z,16.78
2022-10-16T20:36:17.932Z,16.86
2022-10-16T20:38:44.725Z,16.90
2022-10-16T20:41:12.290Z,16.93
2022-10-16T20:46:18.422Z,16.91
2022-10-16T20:48:46.718Z,17.03
2022-10-16T20:51:19.226Z,16.95
2022-10-16T20:53:47.206Z,16.90
2022-10-16T20:56:15.886Z,16.84
2022-10-16T20:58:42.634Z,16.76
2022-10-16T21:01:11.411Z,16.69
2022-10-16T21:03:38.398Z,16.61
2022-10-16T21:06:06.863Z,16.49
2022-10-16T21:08:40.697Z,16.41
2022-10-16T21:11:21.617Z,16.33
2022-10-16T21:13:48.168Z,16.18
2022-10-16T21:16:15.362Z,16.14
2022-10-16T21:18:44.681Z,16.03
2022-10-16T21:21:19.646Z,15.94
2022-10-16T21:23:46.478Z,15.86
2022-10-16T21:26:13.535Z,15.79
2022-10-16T21:28:40.210Z,15.71
2022-10-16T21:31:21.377Z,15.66
2022-10-16T21:33:48.738Z,15.57
2022-10-16T21:36:20.705Z,15.52
2022-10-16T21:38:47.777Z,15.50
2022-10-16T21:41:23.536Z,15.49
2022-10-16T21:43:52.840Z,15.49
2022-10-16T21:46:21.273Z,15.39
2022-10-16T21:48:48.092Z,15.34
2022-10-16T21:51:15.196Z,15.44
2022-10-16T21:53:41.636Z,15.30
2022-10-16T21:56:18.167Z,15.27
2022-10-16T21:58:45.871Z,15.17
2022-10-16T22:01:15.364Z,15.10
2022-10-16T22:03:42.384Z,15.06
2022-10-16T22:06:10.253Z,14.98
2022-10-16T22:08:38.380Z,14.93
2022-10-16T22:11:22.209Z,14.91
2022-10-16T22:13:54.319Z,14.88
2022-10-16T22:16:24.383Z,14.84
2022-10-16T22:18:55.751Z,14.82
2022-10-16T22:21:22.746Z,14.81
2022-10-16T22:23:49.266Z,14.82
2022-10-16T22:26:15.847Z,14.81
2022-10-16T22:28:42.796Z,14.78
2022-10-16T22:31:12.543Z,14.72
2022-10-16T22:33:39.612Z,14.66
2022-10-16T22:36:08.831Z,14.63
2022-10-16T22:38:36.254Z,14.62
2022-10-16T22:41:04.669Z,14.60
2022-10-16T22:43:31.632Z,14.52
2022-10-16T22:46:05.602Z,14.45
2022-10-16T22:48:32.035Z,14.45
2022-10-16T22:50:58.601Z,14.43
2022-10-16T22:53:25.105Z,14.41
2022-10-16T22:55:51.790Z,14.38
2022-10-16T22:58:18.452Z,14.39
2022-10-16T23:00:45.366Z,14.42
2022-10-16T23:03:12.395Z,14.39
2022-10-16T23:05:39.776Z,14.36
2022-10-16T23:08:07.194Z,14.37
2022-10-16T23:10:41.400Z,14.37
2022-10-16T23:13:13.833Z,14.35
2022-10-16T23:15:42.107Z,14.36
2022-10-16T23:18:10.210Z,14.36
2022-10-16T23:20:39.773Z,14.36
2022-10-16T23:23:07.034Z,14.37
2022-10-16T23:25:34.601Z,14.36
2022-10-16T23:28:01.260Z,14.39
2022-10-16T23:30:28.013Z,14.40
2022-10-16T23:32:55.286Z,14.41
2022-10-16T23:35:21.937Z,14.39
2022-10-16T23:37:48.492Z,14.39
2022-10-16T23:40:15.639Z,14.37
2022-10-16T23:42:43.080Z,14.37
2022-10-16T23:45:09.684Z,14.39
2022-10-16T23:47:36.388Z,14.41
2022-10-16T23:50:02.931Z,14.37
2022-10-16T23:52:29.793Z,14.34
2022-10-16T23:54:56.303Z,14.33
2022-10-16T23:57:22.767Z,14.40
2022-10-16T23:59:49.200Z,14.39
